Time;durP1;ratioP1;P1;durP2;ratioP2;P2;SDS_P1;SDS_P2;PMS_P1;PMS_P2;Temp;Humidity;BMP_temperature;BMP_pressure;BME280_temperature;BME280_humidity;BME280_pressure;Samples;Min_cycle;Max_cycle;Signal;HPM_P1;HPM_P2
2022/01/10 00:00:09;;;;;;;5.10;3.25;;;;;;;;;;6235677;23;20045;-77
2022/01/10 00:02:35;;;;;;;6.55;3.58;;;;;;;;;;6234426;22;20005;-77
2022/01/10 00:05:02;;;;;;;6.18;3.55;;;;;;;;;;6238612;23;20009;-77
2022/01/10 00:07:28;;;;;;;6.45;3.75;;;;;;;;;;6236397;23;20012;-75
2022/01/10 00:09:55;;;;;;;8.57;4.00;;;;;;;;;;6237292;23;20019;-77
2022/01/10 00:12:21;;;;;;;5.03;3.28;;;;;;;;;;6209103;23;20070;-78
2022/01/10 00:14:48;;;;;;;6.05;3.35;;;;;;;;;;6211515;23;20086;-75
2022/01/10 00:17:14;;;;;;;5.85;3.55;;;;;;;;;;6238888;23;20008;-76
2022/01/10 00:19:40;;;;;;;5.88;3.40;;;;;;;;;;6239226;23;20643;-77
2022/01/10 00:22:08;;;;;;;7.20;3.40;;;;;;;;;;6238375;23;20092;-76
2022/01/10 00:24:35;;;;;;;6.72;3.83;;;;;;;;;;6239489;23;20428;-77
2022/01/10 00:27:01;;;;;;;8.90;3.55;;;;;;;;;;6240043;23;20017;-75
2022/01/10 00:29:28;;;;;;;6.20;3.55;;;;;;;;;;6237357;23;20020;-76
2022/01/10 00:31:57;;;;;;;5.97;3.50;;;;;;;;;;6240348;23;20009;-76
2022/01/10 00:34:24;;;;;;;6.25;3.70;;;;;;;;;;6238135;23;20020;-76
2022/01/10 00:36:51;;;;;;;5.68;3.75;;;;;;;;;;6239587;23;20404;-76
2022/01/10 00:39:17;;;;;;;5.53;3.50;;;;;;;;;;6210903;23;20071;-77
2022/01/10 00:41:45;;;;;;;6.03;3.38;;;;;;;;;;6238984;23;20020;-76
2022/01/10 00:44:12;;;;;;;5.50;3.10;;;;;;;;;;6237427;23;20023;-76
2022/01/10 00:46:38;;;;;;;6.10;3.75;;;;;;;;;;6212522;23;20031;-76
2022/01/10 00:49:05;;;;;;;6.65;3.33;;;;;;;;;;6238339;23;20530;-77
2022/01/10 00:51:31;;;;;;;7.20;3.33;;;;;;;;;;6212632;23;20090;-77
2022/01/10 00:53:58;;;;;;;6.50;3.47;;;;;;;;;;6238532;23;20016;-75
2022/01/10 00:56:24;;;;;;;8.88;3.17;;;;;;;;;;6237677;23;20012;-77
2022/01/10 00:58:51;;;;;;;6.90;3.80;;;;;;;;;;6212894;23;20016;-75
2022/01/10 01:01:18;;;;;;;5.80;3.70;;;;;;;;;;6238899;22;20464;-76
2022/01/10 01:03:45;;;;;;;5.93;3.70;;;;;;;;;;6240003;23;20020;-77
2022/01/10 01:06:13;;;;;;;6.38;3.70;;;;;;;;;;6239994;23;20008;-76
2022/01/10 01:08:41;;;;;;;5.68;3.53;;;;;;;;;;6240313;23;20015;-77
2022/01/10 01:14:08;;;;;;;6.57;3.53;;;;;;;;;;6242037;23;20031;-77
2022/01/10 01:19:53;;;;;;;6.70;3.60;;;;;;;;;;6242823;23;20004;-76
2022/01/10 01:24:35;;;;;;;6.20;3.30;;;;;;;;;;6240760;23;22177;-79
2022/01/10 01:27:01;;;;;;;6.20;3.53;;;;;;;;;;6242680;23;20034;-75
2022/01/10 01:29:29;;;;;;;6.75;3.80;;;;;;;;;;6242817;23;20016;-76
2022/01/10 01:31:56;;;;;;;5.50;3.50;;;;;;;;;;6249524;23;20012;-75
2022/01/10 01:34:23;;;;;;;7.97;3.42;;;;;;;;;;6247243;23;20012;-75
2022/01/10 01:36:53;;;;;;;6.47;3.45;;;;;;;;;;6220399;23;20020;-73
2022/01/10 01:39:22;;;;;;;5.70;3.45;;;;;;;;;;6238108;23;20012;-75
2022/01/10 01:41:50;;;;;;;8.70;3.80;;;;;;;;;;6238250;23;20522;-76
2022/01/10 01:44:16;;;;;;;7.38;3.47;;;;;;;;;;6211080;23;20449;-76
2022/01/10 01:46:43;;;;;;;6.10;3.63;;;;;;;;;;6238992;23;20019;-76
2022/01/10 01:49:10;;;;;;;6.70;3.97;;;;;;;;;;6239049;23;20016;-76
2022/01/10 01:51:37;;;;;;;5.75;3.92;;;;;;;;;;6213056;23;20024;-76
2022/01/10 01:54:04;;;;;;;6.85;3.70;;;;;;;;;;6238147;23;20020;-74
2022/01/10 01:56:30;;;;;;;6.57;3.97;;;;;;;;;;6210307;23;20012;-76
2022/01/10 01:58:57;;;;;;;7.18;4.15;;;;;;;;;;6239004;23;20345;-76
2022/01/10 02:01:25;;;;;;;7.55;4.47;;;;;;;;;;6237613;22;20360;-77
2022/01/10 02:03:51;;;;;;;8.75;4.35;;;;;;;;;;6239183;23;20499;-75
2022/01/10 02:06:18;;;;;;;6.00;4.15;;;;;;;;;;6211916;23;20365;-75
2022/01/10 02:08:44;;;;;;;8.30;4.45;;;;;;;;;;6238259;23;20023;-76
2022/01/10 02:11:12;;;;;;;6.97;4.07;;;;;;;;;;6237985;23;20016;-76
2022/01/10 02:13:39;;;;;;;6.80;4.60;;;;;;;;;;6237965;23;20012;-75
2022/01/10 02:16:08;;;;;;;7.10;4.13;;;;;;;;;;6237532;23;20012;-77
2022/01/10 02:18:35;;;;;;;6.95;3.88;;;;;;;;;;6238449;23;20432;-77
2022/01/10 02:21:03;;;;;;;6.75;3.80;;;;;;;;;;6238507;23;20062;-77
2022/01/10 02:23:30;;;;;;;9.48;3.88;;;;;;;;;;6235914;23;20204;-77
2022/01/10 02:25:57;;;;;;;8.13;4.43;;;;;;;;;;6237231;23;20067;-75
2022/01/10 02:28:24;;;;;;;7.50;4.35;;;;;;;;;;6237682;23;20077;-76
2022/01/10 02:30:56;;;;;;;6.38;3.65;;;;;;;;;;6211022;23;20016;-76
2022/01/10 02:33:27;;;;;;;7.68;4.05;;;;;;;;;;6237605;23;20135;-76
2022/01/10 02:38:21;;;;;;;8.18;4.35;;;;;;;;;;6238578;23;20060;-75
2022/01/10 02:40:49;;;;;;;7.97;4.63;;;;;;;;;;6238133;23;20039;-75
2022/01/10 02:43:15;;;;;;;9.18;4.80;;;;;;;;;;6237693;23;20012;-75
2022/01/10 02:45:42;;;;;;;8.75;4.47;;;;;;;;;;6238812;23;20012;-76
2022/01/10 02:48:09;;;;;;;7.80;4.40;;;;;;;;;;6239251;23;20016;-75
2022/01/10 02:50:36;;;;;;;5.32;3.58;;;;;;;;;;6214861;23;20024;-74
2022/01/10 02:53:02;;;;;;;7.28;4.57;;;;;;;;;;6242042;23;20012;-76
2022/01/10 02:55:29;;;;;;;6.28;3.75;;;;;;;;;;6245190;23;20054;-76
2022/01/10 02:57:55;;;;;;;8.77;4.55;;;;;;;;;;6243841;23;20031;-76
2022/01/10 03:00:24;;;;;;;6.93;3.70;;;;;;;;;;6240428;23;20023;-75
2022/01/10 03:02:53;;;;;;;7.63;4.15;;;;;;;;;;6240880;22;20498;-75
2022/01/10 03:05:20;;;;;;;6.03;3.97;;;;;;;;;;6238826;23;20039;-75
2022/01/10 03:07:47;;;;;;;6.65;4.05;;;;;;;;;;6241075;23;20012;-77
2022/01/10 03:10:14;;;;;;;6.18;3.90;;;;;;;;;;6213317;23;20020;-75
2022/01/10 03:12:40;;;;;;;7.15;4.50;;;;;;;;;;6241196;23;20066;-74
2022/01/10 03:15:08;;;;;;;7.10;3.97;;;;;;;;;;6240732;23;20437;-74
2022/01/10 03:17:35;;;;;;;6.05;3.78;;;;;;;;;;6240160;23;20009;-75
2022/01/10 03:20:02;;;;;;;7.32;4.45;;;;;;;;;;6240250;23;20020;-75
2022/01/10 03:22:29;;;;;;;6.85;4.35;;;;;;;;;;6212211;23;20050;-77
2022/01/10 03:24:55;;;;;;;6.93;3.90;;;;;;;;;;6239193;23;20021;-76
2022/01/10 03:27:22;;;;;;;9.48;4.97;;;;;;;;;;6210459;23;20348;-75
2022/01/10 03:29:48;;;;;;;8.25;4.47;;;;;;;;;;6210068;23;20419;-77
2022/01/10 03:32:15;;;;;;;6.10;3.90;;;;;;;;;;6237291;23;20020;-76
2022/01/10 03:34:41;;;;;;;7.20;4.40;;;;;;;;;;6238100;23;20693;-75
2022/01/10 03:37:08;;;;;;;7.28;4.50;;;;;;;;;;6238041;23;20016;-76
2022/01/10 03:39:35;;;;;;;7.68;4.38;;;;;;;;;;6238544;23;20058;-76
2022/01/10 03:42:01;;;;;;;7.13;4.50;;;;;;;;;;6212009;23;20441;-76
2022/01/10 03:44:28;;;;;;;8.20;4.20;;;;;;;;;;6237087;23;20031;-77
2022/01/10 03:46:56;;;;;;;9.20;4.47;;;;;;;;;;6212036;23;20023;-77
2022/01/10 03:49:24;;;;;;;7.47;4.38;;;;;;;;;;6237950;22;20020;-76
2022/01/10 03:51:50;;;;;;;6.97;4.47;;;;;;;;;;6239971;23;20028;-77
2022/01/10 03:54:16;;;;;;;8.07;4.40;;;;;;;;;;6238867;23;20012;-77
2022/01/10 03:56:43;;;;;;;8.57;4.70;;;;;;;;;;6239816;23;20471;-75
2022/01/10 03:59:09;;;;;;;8.07;4.50;;;;;;;;;;6239191;23;20047;-78
2022/01/10 04:01:38;;;;;;;7.20;4.30;;;;;;;;;;6213671;23;20340;-74
2022/01/10 04:04:06;;;;;;;7.95;4.63;;;;;;;;;;6238481;23;20024;-78
2022/01/10 04:06:32;;;;;;;7.93;4.80;;;;;;;;;;6240292;23;20015;-76
2022/01/10 04:08:59;;;;;;;8.10;4.75;;;;;;;;;;6239939;23;20066;-76
2022/01/10 04:11:25;;;;;;;8.27;5.10;;;;;;;;;;6239160;23;20027;-76
2022/01/10 04:13:52;;;;;;;8.07;4.75;;;;;;;;;;6239869;23;20016;-76
2022/01/10 04:16:18;;;;;;;6.70;4.90;;;;;;;;;;6238759;23;20015;-75
2022/01/10 04:18:46;;;;;;;6.97;4.55;;;;;;;;;;6240157;23;20024;-75
2022/01/10 04:21:12;;;;;;;8.25;4.43;;;;;;;;;;6238383;23;20012;-76
2022/01/10 04:23:39;;;;;;;7.57;4.93;;;;;;;;;;6239469;23;20023;-76
2022/01/10 04:26:05;;;;;;;7.72;4.30;;;;;;;;;;6238965;23;20046;-77
2022/01/10 04:28:32;;;;;;;7.40;4.32;;;;;;;;;;6239300;23;20008;-75
2022/01/10 04:30:58;;;;;;;8.18;4.55;;;;;;;;;;6239819;23;20495;-75
2022/01/10 04:33:29;;;;;;;8.50;4.70;;;;;;;;;;6239531;23;20020;-76
2022/01/10 04:35:56;;;;;;;9.18;4.88;;;;;;;;;;6240212;23;20008;-75
2022/01/10 04:38:22;;;;;;;9.63;5.15;;;;;;;;;;6238081;23;20016;-76
2022/01/10 04:40:49;;;;;;;8.10;5.00;;;;;;;;;;6213378;23;20373;-76
2022/01/10 04:43:15;;;;;;;9.88;4.82;;;;;;;;;;6238134;23;20020;-76
2022/01/10 04:45:42;;;;;;;8.50;4.72;;;;;;;;;;6237618;23;20008;-77
2022/01/10 04:48:09;;;;;;;9.30;4.57;;;;;;;;;;6237398;23;20016;-75
2022/01/10 04:53:08;;;;;;;10.30;5.05;;;;;;;;;;6238606;23;20012;-77
2022/01/10 04:55:34;;;;;;;8.60;4.78;;;;;;;;;;6238534;23;20015;-75
2022/01/10 04:58:01;;;;;;;8.98;5.28;;;;;;;;;;6237410;23;20016;-75
2022/01/10 05:00:27;;;;;;;8.27;4.85;;;;;;;;;;6236787;23;20015;-77
2022/01/10 05:02:53;;;;;;;6.65;4.30;;;;;;;;;;6238595;22;20012;-77
2022/01/10 05:05:20;;;;;;;7.38;5.15;;;;;;;;;;6237787;23;20020;-77
2022/01/10 05:07:46;;;;;;;7.90;4.85;;;;;;;;;;6238069;23;20015;-75
2022/01/10 05:10:13;;;;;;;7.90;4.60;;;;;;;;;;6187053;23;20019;-76
2022/01/10 05:12:39;;;;;;;8.40;4.70;;;;;;;;;;6186940;23;20008;-77
2022/01/10 05:15:06;;;;;;;8.88;5.30;;;;;;;;;;6239289;23;20012;-77
2022/01/10 05:17:33;;;;;;;9.23;5.15;;;;;;;;;;6238247;23;20008;-76
2022/01/10 05:19:59;;;;;;;9.05;5.18;;;;;;;;;;6212593;23;20041;-76
2022/01/10 05:22:25;;;;;;;9.07;5.82;;;;;;;;;;6221232;23;20420;-78
2022/01/10 05:24:52;;;;;;;8.48;4.57;;;;;;;;;;6238276;23;20027;-76
2022/01/10 05:27:18;;;;;;;10.02;5.70;;;;;;;;;;6238730;23;20349;-77
2022/01/10 05:29:44;;;;;;;8.43;4.60;;;;;;;;;;6238456;23;20016;-77
2022/01/10 05:32:11;;;;;;;7.80;4.78;;;;;;;;;;6236760;23;20023;-77
2022/01/10 05:34:37;;;;;;;9.30;5.75;;;;;;;;;;6238316;23;20031;-78
2022/01/10 05:37:04;;;;;;;9.00;5.57;;;;;;;;;;6238515;23;20012;-77
2022/01/10 05:39:30;;;;;;;8.95;5.43;;;;;;;;;;6237267;23;20019;-74
2022/01/10 05:41:56;;;;;;;9.48;4.78;;;;;;;;;;6238051;23;20008;-76
2022/01/10 05:44:26;;;;;;;6.80;4.50;;;;;;;;;;6238352;23;22329;-76
2022/01/10 05:46:53;;;;;;;8.65;5.05;;;;;;;;;;6213134;23;20016;-76
2022/01/10 05:49:26;;;;;;;9.13;5.50;;;;;;;;;;6236174;23;20016;-76
2022/01/10 05:51:52;;;;;;;8.00;5.07;;;;;;;;;;6238361;23;20464;-76
2022/01/10 05:54:19;;;;;;;8.48;5.63;;;;;;;;;;6236885;23;20349;-75
2022/01/10 05:56:45;;;;;;;9.10;5.40;;;;;;;;;;6238517;23;20012;-74
2022/01/10 05:59:12;;;;;;;8.70;5.22;;;;;;;;;;6235966;23;20008;-76
2022/01/10 06:01:38;;;;;;;9.13;5.43;;;;;;;;;;6238588;22;20008;-77
2022/01/10 06:04:05;;;;;;;10.13;5.05;;;;;;;;;;6237146;23;20031;-76
2022/01/10 06:06:31;;;;;;;8.25;4.82;;;;;;;;;;6235687;23;21156;-75
2022/01/10 06:08:57;;;;;;;7.10;4.85;;;;;;;;;;6237257;23;20016;-74
2022/01/10 06:11:24;;;;;;;8.95;5.60;;;;;;;;;;6235829;23;20101;-75
2022/01/10 06:13:50;;;;;;;8.57;4.97;;;;;;;;;;6237360;23;20052;-76
2022/01/10 06:16:17;;;;;;;7.07;4.50;;;;;;;;;;6209247;23;20073;-75
2022/01/10 06:18:43;;;;;;;7.72;5.00;;;;;;;;;;6236541;23;20000;-76
2022/01/10 06:21:09;;;;;;;7.60;4.75;;;;;;;;;;6235925;23;20000;-75
2022/01/10 06:23:36;;;;;;;9.18;4.72;;;;;;;;;;6236425;23;20023;-76
2022/01/10 06:26:02;;;;;;;10.80;5.00;;;;;;;;;;6236368;23;20357;-77
2022/01/10 06:28:29;;;;;;;8.30;5.25;;;;;;;;;;6237100;23;20019;-76
2022/01/10 06:30:55;;;;;;;8.77;5.25;;;;;;;;;;6237817;23;20640;-76
2022/01/10 06:33:22;;;;;;;7.90;5.28;;;;;;;;;;6236722;23;20314;-76
2022/01/10 06:35:48;;;;;;;7.63;4.63;;;;;;;;;;6237249;23;20015;-75
2022/01/10 06:38:14;;;;;;;8.30;4.75;;;;;;;;;;6236143;23;20126;-74
2022/01/10 06:40:41;;;;;;;7.15;4.72;;;;;;;;;;6238955;23;20003;-75
2022/01/10 06:43:07;;;;;;;7.78;4.82;;;;;;;;;;6237458;23;20012;-76
2022/01/10 06:45:34;;;;;;;9.45;5.18;;;;;;;;;;6212180;23;20016;-75
2022/01/10 06:48:01;;;;;;;8.23;4.90;;;;;;;;;;6239465;23;20011;-75
2022/01/10 06:50:28;;;;;;;9.68;4.97;;;;;;;;;;6236759;23;20020;-75
2022/01/10 06:52:55;;;;;;;9.15;5.40;;;;;;;;;;6238349;23;20012;-76
2022/01/10 06:55:25;;;;;;;9.18;4.75;;;;;;;;;;6237371;23;20016;-74
2022/01/10 06:57:51;;;;;;;9.40;4.70;;;;;;;;;;6238222;23;20066;-76
2022/01/10 07:00:18;;;;;;;7.70;4.38;;;;;;;;;;6234750;23;20008;-76
2022/01/10 07:02:44;;;;;;;8.73;5.03;;;;;;;;;;6235963;22;20016;-76
2022/01/10 07:05:10;;;;;;;8.40;5.20;;;;;;;;;;6236539;23;20310;-77
2022/01/10 07:07:37;;;;;;;7.07;4.10;;;;;;;;;;6239241;23;20340;-74
2022/01/10 07:10:04;;;;;;;9.85;5.57;;;;;;;;;;6237909;23;20457;-74
2022/01/10 07:12:31;;;;;;;7.68;4.55;;;;;;;;;;6236296;23;20012;-76
2022/01/10 07:14:57;;;;;;;9.07;4.90;;;;;;;;;;6237642;23;20012;-76
2022/01/10 07:17:23;;;;;;;8.85;5.05;;;;;;;;;;6211402;23;20333;-76
2022/01/10 07:19:50;;;;;;;9.30;4.75;;;;;;;;;;6211037;23;20054;-76
2022/01/10 07:22:16;;;;;;;8.38;4.90;;;;;;;;;;6238090;23;20019;-74
2022/01/10 07:24:43;;;;;;;7.68;4.50;;;;;;;;;;6211538;23;20027;-75
2022/01/10 07:27:09;;;;;;;7.47;4.70;;;;;;;;;;6238122;23;20345;-77
2022/01/10 07:29:35;;;;;;;8.25;5.13;;;;;;;;;;6240220;23;20066;-76
2022/01/10 07:32:02;;;;;;;8.95;5.18;;;;;;;;;;6239182;23;20468;-76
2022/01/10 07:34:28;;;;;;;8.38;4.63;;;;;;;;;;6238096;23;20798;-75
2022/01/10 07:36:55;;;;;;;8.15;5.13;;;;;;;;;;6240489;23;20020;-75
2022/01/10 07:39:21;;;;;;;8.75;5.15;;;;;;;;;;6239520;23;20008;-77
2022/01/10 07:41:47;;;;;;;7.82;5.00;;;;;;;;;;6239764;23;20018;-76
2022/01/10 07:44:14;;;;;;;8.02;4.85;;;;;;;;;;6238525;23;20364;-75
2022/01/10 07:46:40;;;;;;;6.50;4.65;;;;;;;;;;6239461;23;20008;-74
2022/01/10 07:49:07;;;;;;;8.18;5.05;;;;;;;;;;6239779;23;20023;-77
2022/01/10 07:51:33;;;;;;;7.18;5.03;;;;;;;;;;6238972;23;20093;-75
2022/01/10 07:54:00;;;;;;;8.60;5.28;;;;;;;;;;6187924;23;20027;-76
2022/01/10 07:56:26;;;;;;;9.95;5.80;;;;;;;;;;6236512;23;20028;-76
2022/01/10 07:58:53;;;;;;;8.60;5.32;;;;;;;;;;6240916;23;20016;-75
2022/01/10 08:01:20;;;;;;;8.32;4.68;;;;;;;;;;6236639;22;20051;-75
2022/01/10 08:03:47;;;;;;;10.07;5.35;;;;;;;;;;6212594;23;20008;-77
2022/01/10 08:06:13;;;;;;;8.75;5.60;;;;;;;;;;6238715;23;20019;-76
2022/01/10 08:08:40;;;;;;;8.55;4.80;;;;;;;;;;6238916;23;20016;-76
2022/01/10 08:11:06;;;;;;;8.00;4.78;;;;;;;;;;6238526;23;20511;-77
2022/01/10 08:13:33;;;;;;;8.05;5.43;;;;;;;;;;6213452;23;20019;-76
2022/01/10 08:15:59;;;;;;;9.00;5.05;;;;;;;;;;6239055;23;20543;-74
2022/01/10 08:18:25;;;;;;;7.20;4.57;;;;;;;;;;6239494;23;20027;-76
2022/01/10 08:20:52;;;;;;;7.70;5.10;;;;;;;;;;6239256;23;20432;-76
2022/01/10 08:23:18;;;;;;;9.70;6.10;;;;;;;;;;6211455;23;20034;-76
2022/01/10 08:25:45;;;;;;;7.90;5.05;;;;;;;;;;6239389;23;20016;-76
2022/01/10 08:28:11;;;;;;;8.02;5.25;;;;;;;;;;6194560;23;20004;-76
2022/01/10 08:30:37;;;;;;;11.13;5.32;;;;;;;;;;6239544;23;20441;-74
2022/01/10 08:33:04;;;;;;;7.82;4.78;;;;;;;;;;6238932;23;20016;-76
2022/01/10 08:35:31;;;;;;;9.25;4.53;;;;;;;;;;6238152;23;20559;-76
2022/01/10 08:37:58;;;;;;;8.43;4.95;;;;;;;;;;6239362;23;20020;-76
2022/01/10 08:40:24;;;;;;;8.07;5.35;;;;;;;;;;6238954;23;20016;-76
2022/01/10 08:42:51;;;;;;;7.93;4.35;;;;;;;;;;6238737;23;20016;-76
2022/01/10 08:45:17;;;;;;;10.20;5.57;;;;;;;;;;6237469;23;20027;-77
2022/01/10 08:47:45;;;;;;;9.85;5.35;;;;;;;;;;6239431;23;20019;-76
2022/01/10 08:50:12;;;;;;;8.80;4.97;;;;;;;;;;6238801;22;20031;-77
2022/01/10 08:52:39;;;;;;;6.97;4.50;;;;;;;;;;6239114;23;20012;-76
2022/01/10 08:55:08;;;;;;;8.73;4.78;;;;;;;;;;6239040;23;20035;-77
2022/01/10 08:57:35;;;;;;;6.97;4.30;;;;;;;;;;6237136;23;20602;-76
2022/01/10 09:00:01;;;;;;;10.95;5.30;;;;;;;;;;6238241;22;20462;-76
2022/01/10 09:02:28;;;;;;;6.97;4.53;;;;;;;;;;6237780;23;20082;-76
2022/01/10 09:04:54;;;;;;;9.93;5.20;;;;;;;;;;6239078;23;20027;-74
2022/01/10 09:07:21;;;;;;;7.85;5.07;;;;;;;;;;6237920;23;20012;-76
2022/01/10 09:09:47;;;;;;;10.68;5.00;;;;;;;;;;6238249;23;20004;-77
2022/01/10 09:12:14;;;;;;;7.93;4.78;;;;;;;;;;6238488;23;20444;-77
2022/01/10 09:14:40;;;;;;;8.63;4.72;;;;;;;;;;6237509;23;20641;-77
2022/01/10 09:17:07;;;;;;;8.52;4.97;;;;;;;;;;6235167;23;20480;-78
2022/01/10 09:19:33;;;;;;;7.03;4.75;;;;;;;;;;6237783;23;20448;-76
2022/01/10 09:22:00;;;;;;;9.13;5.40;;;;;;;;;;6236979;23;20443;-76
2022/01/10 09:24:26;;;;;;;9.57;5.38;;;;;;;;;;6235626;23;20027;-76
2022/01/10 09:26:52;;;;;;;8.38;4.82;;;;;;;;;;6209929;23;20418;-76
2022/01/10 09:29:19;;;;;;;7.10;4.82;;;;;;;;;;6236750;23;20020;-76
2022/01/10 09:31:45;;;;;;;9.20;5.13;;;;;;;;;;6238054;23;20012;-76
2022/01/10 09:34:12;;;;;;;8.27;4.90;;;;;;;;;;6235932;23;20012;-76
2022/01/10 09:36:38;;;;;;;7.07;4.70;;;;;;;;;;6211003;23;20004;-77
2022/01/10 09:39:05;;;;;;;8.43;5.05;;;;;;;;;;6237587;23;20019;-74
2022/01/10 09:41:31;;;;;;;7.38;4.53;;;;;;;;;;6209871;23;20008;-77
2022/01/10 09:44:02;;;;;;;7.10;4.85;;;;;;;;;;6237949;23;20012;-75
2022/01/10 09:46:29;;;;;;;8.55;4.93;;;;;;;;;;6234946;23;20016;-76
2022/01/10 09:48:59;;;;;;;7.95;5.28;;;;;;;;;;6237195;22;20066;-77
2022/01/10 09:51:27;;;;;;;9.05;4.95;;;;;;;;;;6235227;23;20476;-77
2022/01/10 09:53:54;;;;;;;7.47;4.45;;;;;;;;;;6213162;23;20028;-76
2022/01/10 09:56:21;;;;;;;8.85;5.13;;;;;;;;;;6238103;23;20016;-77
2022/01/10 09:58:47;;;;;;;7.80;5.10;;;;;;;;;;6235792;23;20015;-75
2022/01/10 10:01:16;;;;;;;6.53;4.45;;;;;;;;;;6208059;23;20070;-76
2022/01/10 10:03:44;;;;;;;8.57;5.18;;;;;;;;;;6237254;23;20004;-76
2022/01/10 10:06:10;;;;;;;7.68;4.70;;;;;;;;;;6236563;23;20373;-75
2022/01/10 10:08:38;;;;;;;8.35;5.30;;;;;;;;;;6238675;23;20015;-77
2022/01/10 10:11:06;;;;;;;8.88;5.03;;;;;;;;;;6238506;23;20016;-75
2022/01/10 10:13:36;;;;;;;9.25;4.93;;;;;;;;;;6236814;23;21485;-76
2022/01/10 10:16:11;;;;;;;8.77;5.00;;;;;;;;;;6238193;23;20062;-76
2022/01/10 10:18:38;;;;;;;8.75;4.75;;;;;;;;;;6235823;23;20013;-74
2022/01/10 10:21:10;;;;;;;7.25;4.60;;;;;;;;;;6236717;23;20078;-77
2022/01/10 10:23:40;;;;;;;8.80;4.80;;;;;;;;;;6235604;23;21356;-75
2022/01/10 10:26:07;;;;;;;9.20;5.53;;;;;;;;;;6236559;23;20024;-75
2022/01/10 10:28:35;;;;;;;8.68;5.18;;;;;;;;;;6235696;23;22298;-75
2022/01/10 10:31:02;;;;;;;8.55;5.63;;;;;;;;;;6211047;23;20012;-76
2022/01/10 10:33:28;;;;;;;9.68;6.28;;;;;;;;;;6236872;23;20012;-75
2022/01/10 10:35:59;;;;;;;12.38;7.57;;;;;;;;;;6237592;23;20023;-75
2022/01/10 10:38:26;;;;;;;13.38;7.25;;;;;;;;;;6235368;23;20024;-76
2022/01/10 10:40:52;;;;;;;14.02;8.20;;;;;;;;;;6237330;23;20024;-76
2022/01/10 10:43:19;;;;;;;10.52;6.82;;;;;;;;;;6236751;23;20020;-77
2022/01/10 10:45:48;;;;;;;10.85;6.55;;;;;;;;;;6236635;23;20020;-74
2022/01/10 10:48:15;;;;;;;16.27;9.70;;;;;;;;;;6209729;23;20016;-76
2022/01/10 10:50:43;;;;;;;16.38;9.93;;;;;;;;;;6236729;22;20411;-76
2022/01/10 10:53:10;;;;;;;16.63;9.55;;;;;;;;;;6236214;23;20325;-74
2022/01/10 10:55:41;;;;;;;13.90;7.78;;;;;;;;;;6238221;23;20054;-76
2022/01/10 10:58:08;;;;;;;18.30;10.43;;;;;;;;;;6236556;23;20012;-77
2022/01/10 11:00:38;;;;;;;21.30;13.02;;;;;;;;;;6237398;22;20012;-76
2022/01/10 11:03:05;;;;;;;15.00;9.75;;;;;;;;;;6237215;23;20016;-76
2022/01/10 11:05:33;;;;;;;18.55;11.50;;;;;;;;;;6233944;23;20445;-76
2022/01/10 11:07:59;;;;;;;19.08;11.80;;;;;;;;;;6236250;23;20012;-76
2022/01/10 11:10:26;;;;;;;21.48;12.98;;;;;;;;;;6235500;23;20028;-76
2022/01/10 11:12:54;;;;;;;30.90;16.77;;;;;;;;;;6210915;23;20457;-76
2022/01/10 11:15:22;;;;;;;26.63;16.83;;;;;;;;;;6236986;23;20322;-76
2022/01/10 11:17:49;;;;;;;24.02;14.23;;;;;;;;;;6237103;23;20008;-77
2022/01/10 11:20:17;;;;;;;22.75;13.98;;;;;;;;;;6237259;23;20445;-77
2022/01/10 11:22:45;;;;;;;34.67;18.83;;;;;;;;;;6236563;23;20012;-75
2022/01/10 11:25:20;;;;;;;34.58;20.90;;;;;;;;;;6237586;23;20012;-77
2022/01/10 11:27:47;;;;;;;30.48;19.35;;;;;;;;;;6240130;23;20012;-75
2022/01/10 11:30:22;;;;;;;40.05;22.42;;;;;;;;;;6243165;23;20016;-77
2022/01/10 11:32:51;;;;;;;31.48;18.80;;;;;;;;;;6244190;23;20016;-75
2022/01/10 11:35:18;;;;;;;27.92;17.33;;;;;;;;;;6241621;23;20016;-77
2022/01/10 11:37:46;;;;;;;36.45;21.60;;;;;;;;;;6244193;23;20326;-75
2022/01/10 11:40:15;;;;;;;35.10;21.05;;;;;;;;;;6238216;23;20131;-77
2022/01/10 11:42:46;;;;;;;24.35;16.35;;;;;;;;;;6212371;23;20071;-76
2022/01/10 11:45:13;;;;;;;20.83;13.07;;;;;;;;;;6237656;23;20437;-77
2022/01/10 11:48:15;;;;;;;28.90;17.17;;;;;;;;;;6238449;23;20020;-76
2022/01/10 11:50:43;;;;;;;36.75;19.27;;;;;;;;;;6173694;23;20823;-75
2022/01/10 11:53:10;;;;;;;36.67;21.10;;;;;;;;;;6225891;23;20012;-75
2022/01/10 11:55:43;;;;;;;40.17;23.92;;;;;;;;;;6211450;23;20012;-78
2022/01/10 11:58:21;;;;;;;46.30;27.02;;;;;;;;;;6209952;23;20019;-77
2022/01/10 12:00:50;;;;;;;39.50;23.65;;;;;;;;;;6237442;22;20009;-78
2022/01/10 12:03:18;;;;;;;62.65;32.78;;;;;;;;;;6237264;23;20016;-76
2022/01/10 12:05:45;;;;;;;50.03;28.77;;;;;;;;;;6209629;23;20016;-78
2022/01/10 12:08:11;;;;;;;42.10;24.88;;;;;;;;;;6235632;23;20395;-77
2022/01/10 12:10:38;;;;;;;33.33;20.60;;;;;;;;;;6239792;23;20008;-77
2022/01/10 12:13:06;;;;;;;36.63;23.58;;;;;;;;;;6237490;23;20020;-77
2022/01/10 12:15:36;;;;;;;50.05;30.35;;;;;;;;;;6211812;23;20087;-77
2022/01/10 12:18:04;;;;;;;52.20;31.38;;;;;;;;;;6239675;23;20437;-77
2022/01/10 12:20:30;;;;;;;51.45;28.90;;;;;;;;;;6237623;23;20433;-76
2022/01/10 12:22:57;;;;;;;48.38;27.73;;;;;;;;;;6237258;23;20113;-76
2022/01/10 12:25:24;;;;;;;87.38;48.90;;;;;;;;;;6236909;23;20024;-77
2022/01/10 12:27:54;;;;;;;56.33;33.75;;;;;;;;;;6238599;23;20016;-76
2022/01/10 12:30:21;;;;;;;73.95;40.65;;;;;;;;;;6236693;23;20012;-77
2022/01/10 12:32:48;;;;;;;40.72;24.40;;;;;;;;;;6238209;23;20375;-76
2022/01/10 12:35:16;;;;;;;56.55;31.65;;;;;;;;;;6237864;23;20043;-76
2022/01/10 12:38:15;;;;;;;51.90;31.33;;;;;;;;;;6202318;23;20017;-78
2022/01/10 12:40:42;;;;;;;74.93;41.42;;;;;;;;;;6139659;23;22261;-76
2022/01/10 12:43:08;;;;;;;46.20;27.05;;;;;;;;;;6212104;23;20012;-79
2022/01/10 12:45:35;;;;;;;33.17;19.27;;;;;;;;;;6238909;23;20022;-78
2022/01/10 12:48:01;;;;;;;75.75;44.83;;;;;;;;;;6239374;23;20028;-77
2022/01/10 12:50:28;;;;;;;88.30;50.08;;;;;;;;;;6237000;22;20164;-75
2022/01/10 12:52:56;;;;;;;68.05;37.50;;;;;;;;;;6211808;23;20016;-77
2022/01/10 12:55:22;;;;;;;103.93;60.88;;;;;;;;;;6237990;23;20015;-77
2022/01/10 12:57:50;;;;;;;84.40;47.00;;;;;;;;;;6237536;23;20776;-76
2022/01/10 13:00:17;;;;;;;65.50;38.15;;;;;;;;;;6209881;23;20020;-78
2022/01/10 13:02:44;;;;;;;88.15;51.88;;;;;;;;;;6239242;23;20552;-76
2022/01/10 13:05:11;;;;;;;54.65;32.75;;;;;;;;;;6238554;23;20042;-76
2022/01/10 13:07:39;;;;;;;52.65;30.02;;;;;;;;;;6211791;23;20012;-77
2022/01/10 13:10:08;;;;;;;58.50;34.85;;;;;;;;;;6237054;23;20020;-77
2022/01/10 13:12:35;;;;;;;56.08;33.67;;;;;;;;;;6236687;23;21377;-78
2022/01/10 13:15:09;;;;;;;99.05;54.35;;;;;;;;;;6237938;23;20012;-76
2022/01/10 13:17:36;;;;;;;101.05;54.95;;;;;;;;;;6209654;23;20062;-76
2022/01/10 13:20:07;;;;;;;96.28;56.95;;;;;;;;;;6237643;23;20012;-75
2022/01/10 13:22:35;;;;;;;42.22;24.38;;;;;;;;;;6207990;23;20012;-77
2022/01/10 13:25:01;;;;;;;75.63;41.63;;;;;;;;;;6239880;23;20085;-78
2022/01/10 13:27:33;;;;;;;67.88;39.03;;;;;;;;;;6248989;23;20027;-76
2022/01/10 13:30:10;;;;;;;44.55;25.73;;;;;;;;;;6230213;23;20070;-76
2022/01/10 13:32:37;;;;;;;83.07;51.47;;;;;;;;;;6245261;23;20417;-75
2022/01/10 13:35:10;;;;;;;59.38;34.10;;;;;;;;;;6245091;23;20099;-76
2022/01/10 13:37:40;;;;;;;71.15;39.35;;;;;;;;;;6215795;23;20016;-76
2022/01/10 13:40:16;;;;;;;53.15;27.95;;;;;;;;;;6247350;23;20016;-76
2022/01/10 13:42:59;;;;;;;77.85;45.13;;;;;;;;;;6239875;23;20624;-75
2022/01/10 13:45:41;;;;;;;48.50;30.35;;;;;;;;;;6245655;23;20016;-76
2022/01/10 13:48:28;;;;;;;78.43;42.83;;;;;;;;;;6245809;23;20075;-80
2022/01/10 13:50:59;;;;;;;74.90;45.63;;;;;;;;;;6222666;23;20024;-75
2022/01/10 13:53:29;;;;;;;96.93;52.88;;;;;;;;;;6239764;23;20016;-75
2022/01/10 13:56:14;;;;;;;65.88;39.33;;;;;;;;;;6240320;23;20043;-77
2022/01/10 13:58:43;;;;;;;75.82;42.47;;;;;;;;;;6239141;23;20388;-74
2022/01/10 14:01:14;;;;;;;82.25;46.92;;;;;;;;;;6238339;22;20015;-76
2022/01/10 14:03:41;;;;;;;87.85;49.38;;;;;;;;;;6242236;23;20008;-75
2022/01/10 14:06:28;;;;;;;86.40;49.67;;;;;;;;;;6245926;23;20054;-75
2022/01/10 14:08:58;;;;;;;73.57;43.80;;;;;;;;;;6237702;23;21208;-76
2022/01/10 14:11:25;;;;;;;82.35;49.00;;;;;;;;;;6240034;23;20016;-75
2022/01/10 14:13:55;;;;;;;65.57;40.05;;;;;;;;;;6212806;23;20039;-75
2022/01/10 14:16:23;;;;;;;69.90;41.15;;;;;;;;;;6241051;23;20349;-75
2022/01/10 14:18:50;;;;;;;79.10;45.47;;;;;;;;;;6249997;23;20016;-77
2022/01/10 14:21:17;;;;;;;78.90;47.53;;;;;;;;;;6218626;23;20039;-77
2022/01/10 14:23:44;;;;;;;83.72;49.20;;;;;;;;;;6214937;23;20089;-76
2022/01/10 14:26:12;;;;;;;78.20;44.22;;;;;;;;;;6241311;23;20082;-76
2022/01/10 14:28:39;;;;;;;56.28;35.42;;;;;;;;;;6245050;23;20040;-77
2022/01/10 14:31:06;;;;;;;70.45;40.65;;;;;;;;;;6217362;23;20008;-75
2022/01/10 14:33:33;;;;;;;79.43;47.53;;;;;;;;;;6246527;23;20078;-76
2022/01/10 14:36:00;;;;;;;53.60;31.17;;;;;;;;;;6217034;23;20640;-75
2022/01/10 14:38:28;;;;;;;86.80;48.50;;;;;;;;;;6247861;23;20392;-76
2022/01/10 14:40:55;;;;;;;66.43;37.90;;;;;;;;;;6247392;23;20441;-78
2022/01/10 14:43:23;;;;;;;80.00;44.55;;;;;;;;;;6215988;23;20016;-77
2022/01/10 14:45:49;;;;;;;64.40;35.40;;;;;;;;;;6242656;23;20027;-75
2022/01/10 14:48:16;;;;;;;78.88;45.03;;;;;;;;;;6241427;23;20016;-76
2022/01/10 14:50:44;;;;;;;100.60;58.17;;;;;;;;;;6240761;22;20020;-78